Time;durP1;ratioP1;P1;durP2;ratioP2;P2;SDS_P1;SDS_P2;PMS_P1;PMS_P2;Temp;Humidity;BMP_temperature;BMP_pressure;BME280_temperature;BME280_humidity;BME280_pressure;Samples;Min_cycle;Max_cycle;Signal;HPM_P1;HPM_P2
2023/09/19 00:01:08;;;;;;;248.93;101.30;;;;;;;;;;4992048;28;20529;-44
2023/09/19 00:03:37;;;;;;;249.27;101.10;;;;;;;;;;4984603;28;20412;-44
2023/09/19 00:06:04;;;;;;;249.47;103.17;;;;;;;;;;4991754;28;20431;-43
2023/09/19 00:08:30;;;;;;;247.93;99.33;;;;;;;;;;4992021;28;20411;-43
2023/09/19 00:11:05;;;;;;;246.77;98.83;;;;;;;;;;4991995;28;20471;-44
2023/09/19 00:13:31;;;;;;;250.37;102.73;;;;;;;;;;4992336;28;20389;-43
2023/09/19 00:15:58;;;;;;;248.77;100.67;;;;;;;;;;4992403;28;20889;-43
2023/09/19 00:18:28;;;;;;;254.47;105.37;;;;;;;;;;4991280;28;20404;-43
2023/09/19 00:20:57;;;;;;;250.53;100.53;;;;;;;;;;4991406;28;20442;-44
2023/09/19 00:23:24;;;;;;;249.03;100.57;;;;;;;;;;4992243;28;20478;-43
2023/09/19 00:25:51;;;;;;;249.63;105.73;;;;;;;;;;4992263;28;20420;-44
2023/09/19 00:28:19;;;;;;;252.37;107.53;;;;;;;;;;4992218;28;20448;-43
2023/09/19 00:30:52;;;;;;;263.10;110.57;;;;;;;;;;4995302;28;20470;-43
2023/09/19 00:33:20;;;;;;;246.73;97.73;;;;;;;;;;4996238;28;20475;-43
2023/09/19 00:35:50;;;;;;;249.87;102.33;;;;;;;;;;4996085;28;20495;-43
2023/09/19 00:38:17;;;;;;;251.77;102.37;;;;;;;;;;4996094;28;20413;-43
2023/09/19 00:40:46;;;;;;;263.73;109.70;;;;;;;;;;4995793;28;20440;-44
2023/09/19 00:43:12;;;;;;;250.50;103.27;;;;;;;;;;4995857;28;20443;-44
2023/09/19 00:45:38;;;;;;;249.33;103.77;;;;;;;;;;4996097;28;20495;-44
2023/09/19 00:48:08;;;;;;;249.00;101.77;;;;;;;;;;4995735;28;20437;-44
2023/09/19 00:50:35;;;;;;;254.37;107.97;;;;;;;;;;4996138;28;20902;-43
2023/09/19 00:53:01;;;;;;;247.43;99.93;;;;;;;;;;4993539;28;20496;-43
2023/09/19 00:55:29;;;;;;;248.07;99.20;;;;;;;;;;4991994;28;20503;-43
2023/09/19 00:57:56;;;;;;;249.17;100.77;;;;;;;;;;4995801;28;20416;-43
2023/09/19 01:00:23;;;;;;;250.57;103.17;;;;;;;;;;4995575;28;20415;-44
2023/09/19 01:02:49;;;;;;;249.67;103.20;;;;;;;;;;4994659;28;20955;-43
2023/09/19 01:05:15;;;;;;;252.83;105.43;;;;;;;;;;4994895;28;20423;-44
2023/09/19 01:07:42;;;;;;;251.53;103.00;;;;;;;;;;4995557;28;20404;-43
2023/09/19 01:10:15;;;;;;;247.17;98.70;;;;;;;;;;4995483;28;20983;-43
2023/09/19 01:12:41;;;;;;;248.73;99.40;;;;;;;;;;4993643;28;20443;-43
2023/09/19 01:15:23;;;;;;;251.07;104.33;;;;;;;;;;4995414;28;20416;-44
2023/09/19 01:17:53;;;;;;;249.30;99.37;;;;;;;;;;4990189;28;20899;-43
2023/09/19 01:20:28;;;;;;;249.23;99.67;;;;;;;;;;4995296;28;20573;-44
2023/09/19 01:23:03;;;;;;;250.00;102.50;;;;;;;;;;4995363;28;20518;-43
2023/09/19 01:25:48;;;;;;;250.00;100.50;;;;;;;;;;4996096;28;20415;-44
2023/09/19 01:28:36;;;;;;;249.37;100.47;;;;;;;;;;4995313;28;20754;-44
2023/09/19 01:31:03;;;;;;;249.37;99.97;;;;;;;;;;4994877;28;20472;-44
2023/09/19 01:33:33;;;;;;;250.97;100.67;;;;;;;;;;4995159;28;20481;-44
2023/09/19 01:35:59;;;;;;;252.20;101.57;;;;;;;;;;4995085;28;20400;-44
2023/09/19 01:38:27;;;;;;;251.87;101.47;;;;;;;;;;4995442;28;20416;-44
2023/09/19 01:41:06;;;;;;;250.70;99.80;;;;;;;;;;4993383;28;20420;-44
2023/09/19 01:43:34;;;;;;;248.83;99.03;;;;;;;;;;4994821;28;20943;-44
2023/09/19 01:46:20;;;;;;;252.27;103.07;;;;;;;;;;4994837;28;20441;-43
2023/09/19 01:48:49;;;;;;;248.57;100.80;;;;;;;;;;4990693;28;20428;-44
2023/09/19 01:51:21;;;;;;;251.30;103.17;;;;;;;;;;4994524;28;20460;-44
2023/09/19 01:54:02;;;;;;;247.27;96.27;;;;;;;;;;4995010;28;20403;-44
2023/09/19 01:56:40;;;;;;;247.17;98.23;;;;;;;;;;4994713;28;20927;-44
2023/09/19 01:59:09;;;;;;;247.17;98.87;;;;;;;;;;4994083;28;20419;-44
2023/09/19 02:01:37;;;;;;;245.63;97.93;;;;;;;;;;4986381;28;20803;-44
2023/09/19 02:04:03;;;;;;;248.37;99.97;;;;;;;;;;4994631;28;20422;-44
2023/09/19 02:06:29;;;;;;;247.37;99.03;;;;;;;;;;4994595;28;20428;-44
2023/09/19 02:08:55;;;;;;;250.03;104.00;;;;;;;;;;4989714;28;20467;-44
2023/09/19 02:11:21;;;;;;;246.57;97.27;;;;;;;;;;4994150;28;20834;-44
2023/09/19 02:13:47;;;;;;;247.97;100.77;;;;;;;;;;4994393;28;20973;-44
2023/09/19 02:16:13;;;;;;;247.73;98.57;;;;;;;;;;4994545;28;20412;-44
2023/09/19 02:18:39;;;;;;;249.37;100.23;;;;;;;;;;4993069;28;20420;-44
2023/09/19 02:21:06;;;;;;;247.47;99.47;;;;;;;;;;4993954;28;20439;-44
2023/09/19 02:23:33;;;;;;;248.17;100.57;;;;;;;;;;4994685;28;20491;-44
2023/09/19 02:26:00;;;;;;;247.30;101.80;;;;;;;;;;4994178;28;20892;-44
2023/09/19 02:28:29;;;;;;;248.47;99.27;;;;;;;;;;4994098;28;20908;-44
2023/09/19 02:30:55;;;;;;;245.87;98.50;;;;;;;;;;4993895;28;20463;-44
2023/09/19 02:33:21;;;;;;;250.43;102.30;;;;;;;;;;4994263;28;20415;-44
2023/09/19 02:35:48;;;;;;;247.17;96.93;;;;;;;;;;4994069;28;20784;-44
2023/09/19 02:38:18;;;;;;;248.10;100.67;;;;;;;;;;4987083;28;20483;-44
2023/09/19 02:40:44;;;;;;;252.20;103.30;;;;;;;;;;4993734;28;20768;-44
2023/09/19 02:43:10;;;;;;;246.97;99.10;;;;;;;;;;4993801;28;20815;-44
2023/09/19 02:45:36;;;;;;;246.33;96.60;;;;;;;;;;4993960;28;21153;-44
2023/09/19 02:48:02;;;;;;;246.20;96.77;;;;;;;;;;4993757;28;20426;-44
2023/09/19 02:50:28;;;;;;;248.07;98.73;;;;;;;;;;4993460;28;20456;-44
2023/09/19 02:52:54;;;;;;;248.33;99.47;;;;;;;;;;4993164;28;20432;-44
2023/09/19 02:55:21;;;;;;;248.03;98.77;;;;;;;;;;4993571;28;20435;-44
2023/09/19 02:57:51;;;;;;;246.77;97.37;;;;;;;;;;4993740;28;20918;-44
2023/09/19 03:00:21;;;;;;;246.23;95.53;;;;;;;;;;4993365;28;20416;-44
2023/09/19 03:02:56;;;;;;;246.47;97.53;;;;;;;;;;4990657;28;20535;-44
2023/09/19 03:05:26;;;;;;;247.30;97.50;;;;;;;;;;4991576;28;20415;-45
2023/09/19 03:07:52;;;;;;;247.77;97.43;;;;;;;;;;4993343;28;20420;-44
2023/09/19 03:10:19;;;;;;;249.80;99.37;;;;;;;;;;4993098;28;20467;-44
2023/09/19 03:12:45;;;;;;;248.60;100.47;;;;;;;;;;4985415;28;20463;-44
2023/09/19 03:15:11;;;;;;;245.50;94.70;;;;;;;;;;4993430;28;20447;-44
2023/09/19 03:17:37;;;;;;;247.63;97.17;;;;;;;;;;4993233;28;20487;-44
2023/09/19 03:20:07;;;;;;;247.43;97.77;;;;;;;;;;4992843;28;20416;-44
2023/09/19 03:22:34;;;;;;;246.27;97.93;;;;;;;;;;4992780;28;20509;-44
2023/09/19 03:25:00;;;;;;;247.43;97.20;;;;;;;;;;4993082;28;20416;-45
2023/09/19 03:27:27;;;;;;;246.30;96.73;;;;;;;;;;4993056;28;20423;-44
2023/09/19 03:29:53;;;;;;;247.03;101.53;;;;;;;;;;4992991;28;20817;-44
2023/09/19 03:32:19;;;;;;;249.17;99.77;;;;;;;;;;4992639;28;20435;-44
2023/09/19 03:34:48;;;;;;;247.23;98.30;;;;;;;;;;4992919;28;20400;-44
2023/09/19 03:37:14;;;;;;;250.70;102.97;;;;;;;;;;4992875;28;20400;-44
2023/09/19 03:39:40;;;;;;;247.43;98.47;;;;;;;;;;4992861;28;20440;-44
2023/09/19 03:42:07;;;;;;;246.93;99.27;;;;;;;;;;4992456;28;20449;-44
2023/09/19 03:44:33;;;;;;;247.33;97.23;;;;;;;;;;4992633;28;20856;-44
2023/09/19 03:46:59;;;;;;;246.30;98.30;;;;;;;;;;4992754;28;20408;-44
2023/09/19 03:49:25;;;;;;;248.07;97.53;;;;;;;;;;4992347;28;20517;-44
2023/09/19 03:51:51;;;;;;;247.67;96.83;;;;;;;;;;4992566;28;20448;-44
2023/09/19 03:54:19;;;;;;;249.03;100.20;;;;;;;;;;4992650;28;20412;-44
2023/09/19 03:56:45;;;;;;;244.60;95.97;;;;;;;;;;4992719;28;20416;-44
2023/09/19 03:59:12;;;;;;;245.20;97.37;;;;;;;;;;4992441;28;20801;-45
2023/09/19 04:01:38;;;;;;;245.60;98.10;;;;;;;;;;4992192;28;20443;-44
2023/09/19 04:04:08;;;;;;;244.07;94.33;;;;;;;;;;4991740;28;20423;-44
2023/09/19 04:06:37;;;;;;;245.80;95.27;;;;;;;;;;4984711;28;20407;-44
2023/09/19 04:09:04;;;;;;;245.10;94.73;;;;;;;;;;4992193;28;20439;-44
2023/09/19 04:11:33;;;;;;;247.90;100.37;;;;;;;;;;4992111;28;20439;-45
2023/09/19 04:13:59;;;;;;;244.77;96.73;;;;;;;;;;4992485;28;20422;-44
2023/09/19 04:16:26;;;;;;;249.30;98.90;;;;;;;;;;4991153;28;20407;-44
2023/09/19 04:18:52;;;;;;;247.17;95.27;;;;;;;;;;4992252;28;20742;-44
2023/09/19 04:21:19;;;;;;;246.27;93.37;;;;;;;;;;4991824;28;20441;-44
2023/09/19 04:23:44;;;;;;;246.87;96.73;;;;;;;;;;4992314;28;20431;-44
2023/09/19 04:26:11;;;;;;;245.17;94.07;;;;;;;;;;4992221;28;20678;-44
2023/09/19 04:28:38;;;;;;;246.57;96.37;;;;;;;;;;4992226;28;20400;-44
2023/09/19 04:31:04;;;;;;;248.20;98.17;;;;;;;;;;4991748;28;20469;-44
2023/09/19 04:33:30;;;;;;;243.97;94.63;;;;;;;;;;4992177;28;20411;-45
2023/09/19 04:35:56;;;;;;;246.97;98.03;;;;;;;;;;4992217;28;20846;-44
2023/09/19 04:38:23;;;;;;;246.17;92.27;;;;;;;;;;4992142;28;20419;-44
2023/09/19 04:40:49;;;;;;;249.30;96.33;;;;;;;;;;4991798;28;20407;-44
2023/09/19 04:43:15;;;;;;;245.93;95.13;;;;;;;;;;4991836;28;20482;-44
2023/09/19 04:45:41;;;;;;;244.87;94.90;;;;;;;;;;4992078;28;20419;-44
2023/09/19 04:48:08;;;;;;;243.60;93.67;;;;;;;;;;4991984;28;20473;-44
2023/09/19 04:50:34;;;;;;;243.73;92.60;;;;;;;;;;4983831;28;20933;-44
2023/09/19 04:53:00;;;;;;;241.77;91.47;;;;;;;;;;4991979;28;20446;-44
2023/09/19 04:55:26;;;;;;;247.73;94.67;;;;;;;;;;4991986;28;20412;-44
2023/09/19 04:57:53;;;;;;;244.27;93.97;;;;;;;;;;4991896;28;20412;-44
2023/09/19 05:00:24;;;;;;;245.60;96.07;;;;;;;;;;4991734;28;20439;-44
2023/09/19 05:02:53;;;;;;;246.33;97.27;;;;;;;;;;4992056;28;20431;-44
2023/09/19 05:05:19;;;;;;;244.13;92.47;;;;;;;;;;4991838;28;20489;-44
2023/09/19 05:07:45;;;;;;;246.20;93.77;;;;;;;;;;4991880;28;20419;-44
2023/09/19 05:10:12;;;;;;;243.10;90.70;;;;;;;;;;4991608;28;20467;-44
2023/09/19 05:12:38;;;;;;;244.87;93.60;;;;;;;;;;4991549;28;20435;-44
2023/09/19 05:15:06;;;;;;;242.60;89.43;;;;;;;;;;4992405;28;20416;-44
2023/09/19 05:17:32;;;;;;;245.43;93.70;;;;;;;;;;4995454;28;20411;-44
2023/09/19 05:20:00;;;;;;;248.10;96.97;;;;;;;;;;4995381;28;20859;-44
2023/09/19 05:22:29;;;;;;;243.30;93.60;;;;;;;;;;4995095;28;20463;-44
2023/09/19 05:24:55;;;;;;;241.33;89.13;;;;;;;;;;4995396;28;20410;-44
2023/09/19 05:27:21;;;;;;;248.43;98.37;;;;;;;;;;4995115;28;20454;-44
2023/09/19 05:29:48;;;;;;;243.63;93.30;;;;;;;;;;4995147;28;20823;-44
2023/09/19 05:32:15;;;;;;;244.37;92.23;;;;;;;;;;4994842;28;20428;-43
2023/09/19 05:34:42;;;;;;;243.97;95.63;;;;;;;;;;4995585;28;20892;-44
2023/09/19 05:37:08;;;;;;;243.10;93.17;;;;;;;;;;4995150;28;20478;-44
2023/09/19 05:39:34;;;;;;;244.67;94.60;;;;;;;;;;4985129;28;20971;-44
2023/09/19 05:42:00;;;;;;;244.57;91.33;;;;;;;;;;4982229;28;20523;-44
2023/09/19 05:44:26;;;;;;;243.60;92.87;;;;;;;;;;4994881;28;20928;-44
2023/09/19 05:46:52;;;;;;;245.03;95.33;;;;;;;;;;4995049;28;20408;-44
2023/09/19 05:49:21;;;;;;;244.80;96.37;;;;;;;;;;4995133;28;20472;-44
2023/09/19 05:51:47;;;;;;;248.17;101.13;;;;;;;;;;4994590;28;20428;-44
2023/09/19 05:54:13;;;;;;;244.00;95.07;;;;;;;;;;4994702;28;20488;-44
2023/09/19 05:56:39;;;;;;;245.63;96.53;;;;;;;;;;4995032;28;20414;-44
2023/09/19 05:59:05;;;;;;;244.40;95.57;;;;;;;;;;4994506;28;20404;-44
2023/09/19 06:01:34;;;;;;;245.33;93.47;;;;;;;;;;4994357;28;20962;-44
2023/09/19 06:04:00;;;;;;;246.40;94.30;;;;;;;;;;4994603;28;20458;-44
2023/09/19 06:06:26;;;;;;;247.10;98.17;;;;;;;;;;4994507;28;20499;-44
2023/09/19 06:08:52;;;;;;;249.20;98.73;;;;;;;;;;4994385;28;20415;-44
2023/09/19 06:11:20;;;;;;;246.97;95.57;;;;;;;;;;4993988;28;20467;-44
2023/09/19 06:13:47;;;;;;;247.30;99.00;;;;;;;;;;4994596;28;20490;-44
2023/09/19 06:16:13;;;;;;;248.00;101.17;;;;;;;;;;4994398;28;20404;-45
2023/09/19 06:18:39;;;;;;;245.57;96.57;;;;;;;;;;4994279;28;20765;-44
2023/09/19 06:21:07;;;;;;;244.97;96.03;;;;;;;;;;4993988;28;20443;-44
2023/09/19 06:23:34;;;;;;;245.87;95.90;;;;;;;;;;4994165;28;20491;-45
2023/09/19 06:26:00;;;;;;;245.07;94.37;;;;;;;;;;4994369;28;20411;-44
2023/09/19 06:28:28;;;;;;;245.50;94.13;;;;;;;;;;4991820;28;20458;-44
2023/09/19 06:30:54;;;;;;;249.27;97.80;;;;;;;;;;4993904;28;20471;-44
2023/09/19 06:33:21;;;;;;;249.63;100.27;;;;;;;;;;4994047;28;20415;-44
2023/09/19 06:35:48;;;;;;;244.97;93.63;;;;;;;;;;4994160;28;20446;-44
2023/09/19 06:38:15;;;;;;;249.37;100.27;;;;;;;;;;4993801;28;20724;-44
2023/09/19 06:40:42;;;;;;;243.43;95.77;;;;;;;;;;4993779;28;20431;-44
2023/09/19 06:43:10;;;;;;;245.03;93.57;;;;;;;;;;4993887;28;20413;-44
2023/09/19 06:45:36;;;;;;;244.13;95.73;;;;;;;;;;4986461;28;20528;-44
2023/09/19 06:48:03;;;;;;;245.03;93.97;;;;;;;;;;4992885;28;20862;-43
2023/09/19 06:50:30;;;;;;;246.33;95.53;;;;;;;;;;4993161;28;20524;-44
2023/09/19 06:52:59;;;;;;;246.87;101.77;;;;;;;;;;4993722;28;20436;-43
2023/09/19 06:55:27;;;;;;;247.77;95.83;;;;;;;;;;4992289;28;20412;-44
2023/09/19 06:57:54;;;;;;;246.57;96.53;;;;;;;;;;4993005;28;20408;-44
2023/09/19 07:00:23;;;;;;;245.10;92.33;;;;;;;;;;4991485;28;20983;-44
2023/09/19 07:03:00;;;;;;;243.63;94.50;;;;;;;;;;4993281;28;20446;-44
2023/09/19 07:05:27;;;;;;;245.47;93.13;;;;;;;;;;4993459;28;20424;-44
2023/09/19 07:07:54;;;;;;;244.67;92.03;;;;;;;;;;4993488;28;20407;-44
2023/09/19 07:10:23;;;;;;;245.80;95.17;;;;;;;;;;4993151;28;20975;-44
2023/09/19 07:12:54;;;;;;;245.53;94.67;;;;;;;;;;4992993;28;20445;-44
2023/09/19 07:15:23;;;;;;;247.40;95.13;;;;;;;;;;4993204;28;20416;-45
2023/09/19 07:17:49;;;;;;;246.70;94.67;;;;;;;;;;4993742;28;20415;-44
2023/09/19 07:20:16;;;;;;;249.77;97.23;;;;;;;;;;4993102;28;20799;-44
2023/09/19 07:22:42;;;;;;;246.47;93.20;;;;;;;;;;4992896;28;20431;-45
2023/09/19 07:25:08;;;;;;;243.10;90.87;;;;;;;;;;4992963;28;20959;-45
2023/09/19 07:27:34;;;;;;;245.53;95.00;;;;;;;;;;4988047;28;20452;-44
2023/09/19 07:30:00;;;;;;;247.43;95.10;;;;;;;;;;4992896;28;20460;-44
2023/09/19 07:32:26;;;;;;;248.13;95.47;;;;;;;;;;4992481;28;20542;-44
2023/09/19 07:34:52;;;;;;;247.73;93.73;;;;;;;;;;4993208;28;20413;-44
2023/09/19 07:37:18;;;;;;;250.73;98.37;;;;;;;;;;4991726;28;20414;-44
2023/09/19 07:39:44;;;;;;;245.07;93.93;;;;;;;;;;4992978;28;20408;-44
2023/09/19 07:42:11;;;;;;;249.17;100.03;;;;;;;;;;4992499;28;20435;-44
2023/09/19 07:44:38;;;;;;;246.27;98.67;;;;;;;;;;4992526;28;20433;-44
2023/09/19 07:47:04;;;;;;;242.67;92.30;;;;;;;;;;4992810;28;20520;-44
2023/09/19 07:49:30;;;;;;;244.97;92.87;;;;;;;;;;4992586;28;20452;-44
2023/09/19 07:51:57;;;;;;;245.33;93.77;;;;;;;;;;4991168;28;20788;-44
2023/09/19 07:54:23;;;;;;;246.27;95.87;;;;;;;;;;4993346;28;20416;-44
2023/09/19 07:56:49;;;;;;;246.80;96.27;;;;;;;;;;4992583;28;20421;-44
2023/09/19 07:59:16;;;;;;;248.37;101.23;;;;;;;;;;4992450;28;20495;-43
2023/09/19 08:01:44;;;;;;;248.03;98.53;;;;;;;;;;4992091;28;20431;-43
2023/09/19 08:04:10;;;;;;;249.97;98.63;;;;;;;;;;4982650;28;20917;-43
2023/09/19 08:06:38;;;;;;;250.23;102.07;;;;;;;;;;4991000;28;20420;-43
2023/09/19 08:09:10;;;;;;;251.70;99.77;;;;;;;;;;4992250;28;20473;-44
2023/09/19 08:11:36;;;;;;;251.37;100.70;;;;;;;;;;4984487;28;20463;-44
2023/09/19 08:14:02;;;;;;;248.97;102.40;;;;;;;;;;4988501;28;20408;-43
2023/09/19 08:16:28;;;;;;;251.03;101.83;;;;;;;;;;4992368;28;20461;-43
2023/09/19 08:18:55;;;;;;;249.50;100.67;;;;;;;;;;4992290;28;20405;-43
2023/09/19 08:21:23;;;;;;;251.03;99.60;;;;;;;;;;4990697;28;20798;-43
2023/09/19 08:23:49;;;;;;;245.07;96.53;;;;;;;;;;4992303;28;20842;-43
2023/09/19 08:26:15;;;;;;;250.53;102.53;;;;;;;;;;4992095;28;20417;-44
2023/09/19 08:28:41;;;;;;;243.80;98.33;;;;;;;;;;4992194;28;20947;-43
2023/09/19 08:31:08;;;;;;;247.37;101.17;;;;;;;;;;4991885;28;20477;-43
2023/09/19 08:33:35;;;;;;;249.97;101.37;;;;;;;;;;4984216;28;20413;-44
2023/09/19 08:36:04;;;;;;;252.77;104.20;;;;;;;;;;4992164;28;20400;-43
2023/09/19 08:38:30;;;;;;;248.03;102.07;;;;;;;;;;4992110;28;20414;-43
2023/09/19 08:41:00;;;;;;;246.07;98.43;;;;;;;;;;4991693;28;20748;-43
2023/09/19 08:43:26;;;;;;;252.13;104.37;;;;;;;;;;4992122;28;20422;-43
2023/09/19 08:46:04;;;;;;;244.60;97.10;;;;;;;;;;4992106;28;20415;-43
2023/09/19 08:48:30;;;;;;;249.27;103.93;;;;;;;;;;4992222;28;20439;-44
2023/09/19 08:51:08;;;;;;;249.37;102.50;;;;;;;;;;4993558;28;20854;-44
2023/09/19 08:53:37;;;;;;;253.60;104.27;;;;;;;;;;4983443;28;20964;-44
2023/09/19 08:56:04;;;;;;;248.90;100.07;;;;;;;;;;4990759;28;20416;-43
2023/09/19 08:58:35;;;;;;;253.17;108.53;;;;;;;;;;4995209;28;20496;-43
2023/09/19 09:01:01;;;;;;;249.27;105.57;;;;;;;;;;4995518;28;20565;-43
2023/09/19 09:03:27;;;;;;;251.10;104.80;;;;;;;;;;4994885;28;20486;-43
2023/09/19 09:05:55;;;;;;;257.60;113.37;;;;;;;;;;4995652;28;20435;-43
2023/09/19 09:08:21;;;;;;;257.93;117.07;;;;;;;;;;4995467;28;20423;-43
2023/09/19 09:10:48;;;;;;;256.30;112.87;;;;;;;;;;4995216;28;20463;-44
2023/09/19 09:13:15;;;;;;;254.00;114.27;;;;;;;;;;4995573;28;20423;-44
2023/09/19 09:15:41;;;;;;;249.03;106.73;;;;;;;;;;4980447;28;20418;-43
2023/09/19 09:18:07;;;;;;;250.73;107.37;;;;;;;;;;4995477;28;20427;-44
2023/09/19 09:20:33;;;;;;;258.67;115.40;;;;;;;;;;4992491;28;20939;-44
2023/09/19 09:23:00;;;;;;;251.50;107.53;;;;;;;;;;4993930;28;20470;-44
2023/09/19 09:25:46;;;;;;;256.93;115.90;;;;;;;;;;4994223;28;20495;-44
2023/09/19 09:28:12;;;;;;;253.77;110.30;;;;;;;;;;4995258;28;20422;-44
2023/09/19 09:30:38;;;;;;;250.70;105.70;;;;;;;;;;4993938;28;20462;-43
2023/09/19 09:33:11;;;;;;;252.63;110.13;;;;;;;;;;4995082;28;20767;-44
2023/09/19 09:35:42;;;;;;;252.03;113.33;;;;;;;;;;4987749;28;20404;-43
2023/09/19 09:38:09;;;;;;;251.40;112.47;;;;;;;;;;4989581;28;20409;-44
2023/09/19 09:40:52;;;;;;;258.77;117.47;;;;;;;;;;4987052;28;20408;-43
2023/09/19 09:43:28;;;;;;;253.27;113.00;;;;;;;;;;4993996;28;20416;-44
2023/09/19 09:49:15;;;;;;;255.00;116.40;;;;;;;;;;4987776;28;20419;-44
2023/09/19 09:51:43;;;;;;;251.30;110.40;;;;;;;;;;4985623;28;20523;-43
2023/09/19 09:54:12;;;;;;;251.03;111.37;;;;;;;;;;4991625;28;20405;-45
2023/09/19 09:57:13;;;;;;;255.53;118.20;;;;;;;;;;4987660;28;20400;-44
2023/09/19 09:59:47;;;;;;;253.23;115.50;;;;;;;;;;4987514;28;20478;-43
2023/09/19 10:02:20;;;;;;;252.77;114.97;;;;;;;;;;4993230;28;20443;-43
2023/09/19 10:04:52;;;;;;;250.67;112.47;;;;;;;;;;4994856;28;20410;-44
2023/09/19 10:07:32;;;;;;;252.60;116.27;;;;;;;;;;4992024;28;20425;-42
2023/09/19 10:10:04;;;;;;;250.67;113.57;;;;;;;;;;4994513;28;20468;-44
2023/09/19 10:12:31;;;;;;;251.57;116.37;;;;;;;;;;4993407;28;20428;-43
2023/09/19 10:15:00;;;;;;;249.70;113.70;;;;;;;;;;4992067;28;20415;-43
2023/09/19 10:17:28;;;;;;;253.03;117.47;;;;;;;;;;4994431;28;20453;-43
2023/09/19 10:19:57;;;;;;;249.47;110.37;;;;;;;;;;4994535;28;20411;-44
2023/09/19 10:22:26;;;;;;;252.97;117.30;;;;;;;;;;4994247;28;20432;-44
2023/09/19 10:24:53;;;;;;;253.13;114.67;;;;;;;;;;4994412;28;20900;-45
2023/09/19 10:27:21;;;;;;;252.97;114.40;;;;;;;;;;4993447;28;20454;-44
2023/09/19 10:29:56;;;;;;;250.90;118.93;;;;;;;;;;4991741;28;20518;-43
2023/09/19 10:32:23;;;;;;;250.30;113.23;;;;;;;;;;4993920;28;20435;-44
2023/09/19 10:34:50;;;;;;;249.50;116.07;;;;;;;;;;4993157;28;20469;-43
2023/09/19 10:37:21;;;;;;;250.30;115.30;;;;;;;;;;4987030;28;20937;-43
2023/09/19 10:39:49;;;;;;;256.37;123.80;;;;;;;;;;4993813;28;20430;-44
2023/09/19 10:42:18;;;;;;;249.97;112.63;;;;;;;;;;4993764;28;20443;-44
2023/09/19 10:44:45;;;;;;;253.47;125.13;;;;;;;;;;4993666;28;20454;-44
2023/09/19 10:47:13;;;;;;;255.30;127.07;;;;;;;;;;4993859;28;20419;-44
2023/09/19 10:49:49;;;;;;;253.83;124.50;;;;;;;;;;4993747;28;20462;-44
2023/09/19 10:52:19;;;;;;;255.30;125.47;;;;;;;;;;4977421;28;20399;-44
2023/09/19 10:54:51;;;;;;;252.07;123.10;;;;;;;;;;4988079;28;20404;-44
2023/09/19 10:57:23;;;;;;;250.43;123.90;;;;;;;;;;4993632;28;20427;-44
2023/09/19 11:00:27;;;;;;;254.80;130.60;;;;;;;;;;4993716;28;20391;-44
2023/09/19 11:03:22;;;;;;;253.57;128.03;;;;;;;;;;4988943;28;20467;-44
2023/09/19 11:06:05;;;;;;;254.80;129.63;;;;;;;;;;4986580;28;20424;-44
2023/09/19 11:08:50;;;;;;;257.27;130.40;;;;;;;;;;4991872;28;20409;-44
2023/09/19 11:11:37;;;;;;;252.00;124.10;;;;;;;;;;4991805;28;20837;-44
2023/09/19 11:14:24;;;;;;;250.90;123.47;;;;;;;;;;4981823;28;20459;-44
2023/09/19 11:17:11;;;;;;;253.07;125.53;;;;;;;;;;4986343;28;20416;-44
2023/09/19 11:19:56;;;;;;;253.63;127.93;;;;;;;;;;4993190;28;20415;-44
2023/09/19 11:22:22;;;;;;;257.13;128.13;;;;;;;;;;4991948;28;20435;-44
2023/09/19 11:24:51;;;;;;;253.47;125.80;;;;;;;;;;4989697;28;20435;-44
2023/09/19 11:27:18;;;;;;;253.40;124.37;;;;;;;;;;4987319;28;20460;-44
2023/09/19 11:29:44;;;;;;;251.87;121.60;;;;;;;;;;4988147;28;20542;-45
2023/09/19 11:32:10;;;;;;;251.20;123.10;;;;;;;;;;4992280;28;20434;-45
2023/09/19 11:34:36;;;;;;;253.53;127.03;;;;;;;;;;4993353;28;20848;-44
2023/09/19 11:37:06;;;;;;;254.27;129.47;;;;;;;;;;4991902;28;20431;-45
2023/09/19 11:39:32;;;;;;;255.13;129.80;;;;;;;;;;4990978;28;20428;-44
2023/09/19 11:42:00;;;;;;;255.17;127.60;;;;;;;;;;4992023;28;20435;-45
2023/09/19 11:44:26;;;;;;;261.57;133.50;;;;;;;;;;4989160;28;20454;-44
2023/09/19 11:46:53;;;;;;;258.80;127.50;;;;;;;;;;4987780;28;20985;-44
2023/09/19 11:49:23;;;;;;;250.93;125.67;;;;;;;;;;4991256;28;21086;-44
2023/09/19 11:51:51;;;;;;;252.47;128.70;;;;;;;;;;4992821;28;20971;-44
2023/09/19 11:54:21;;;;;;;250.63;124.90;;;;;;;;;;4992812;28;20415;-44
2023/09/19 11:56:51;;;;;;;251.93;125.47;;;;;;;;;;4992668;28;20409;-44
2023/09/19 11:59:22;;;;;;;252.03;123.27;;;;;;;;;;4992645;28;20462;-44
2023/09/19 12:01:57;;;;;;;252.93;119.80;;;;;;;;;;4992397;28;20958;-44
2023/09/19 12:04:37;;;;;;;251.30;122.27;;;;;;;;;;4992688;28;20846;-44
2023/09/19 12:07:04;;;;;;;252.93;120.30;;;;;;;;;;4992748;28;20415;-44
2023/09/19 12:09:30;;;;;;;255.00;124.43;;;;;;;;;;4992414;28;20458;-44
2023/09/19 12:11:57;;;;;;;253.80;121.53;;;;;;;;;;4992308;28;20442;-44
2023/09/19 12:14:25;;;;;;;254.13;123.87;;;;;;;;;;4992706;28;20407;-45
2023/09/19 12:16:55;;;;;;;255.47;127.83;;;;;;;;;;4992788;28;20940;-44
2023/09/19 12:19:22;;;;;;;253.73;120.90;;;;;;;;;;4992515;28;20491;-44
2023/09/19 12:22:09;;;;;;;253.87;124.47;;;;;;;;;;4992173;28;20435;-44
2023/09/19 12:24:38;;;;;;;250.03;122.27;;;;;;;;;;4992047;28;20415;-45
2023/09/19 12:27:05;;;;;;;251.57;122.27;;;;;;;;;;4992385;28;20419;-45
2023/09/19 12:29:32;;;;;;;248.03;116.30;;;;;;;;;;4992448;28;20818;-44
2023/09/19 12:31:58;;;;;;;251.77;122.60;;;;;;;;;;4992135;28;20522;-44
2023/09/19 12:34:28;;;;;;;254.43;124.87;;;;;;;;;;4992310;28;20515;-45
2023/09/19 12:37:11;;;;;;;253.13;119.47;;;;;;;;;;4992345;28;20415;-44
2023/09/19 12:39:41;;;;;;;249.50;119.67;;;;;;;;;;4973884;28;20401;-46
2023/09/19 12:42:08;;;;;;;256.07;131.40;;;;;;;;;;4991987;28;20434;-44
2023/09/19 12:44:35;;;;;;;251.30;123.97;;;;;;;;;;4992140;28;20442;-45
2023/09/19 12:47:09;;;;;;;253.63;129.33;;;;;;;;;;4991928;28;20911;-44
2023/09/19 12:49:35;;;;;;;251.60;129.53;;;;;;;;;;4992037;28;20459;-44
2023/09/19 12:52:01;;;;;;;254.23;132.27;;;;;;;;;;4991886;28;20459;-45
2023/09/19 12:54:38;;;;;;;254.30;135.97;;;;;;;;;;4992178;28;20416;-44
2023/09/19 12:57:04;;;;;;;258.13;135.30;;;;;;;;;;4991936;28;20408;-44
2023/09/19 12:59:32;;;;;;;252.60;131.33;;;;;;;;;;4992124;28;20424;-43
2023/09/19 13:02:07;;;;;;;254.07;130.40;;;;;;;;;;4991746;28;20491;-44
2023/09/19 13:04:34;;;;;;;248.50;124.80;;;;;;;;;;4992195;28;20407;-44
2023/09/19 13:07:00;;;;;;;251.83;129.40;;;;;;;;;;4992066;28;20420;-44
2023/09/19 13:09:38;;;;;;;252.17;129.53;;;;;;;;;;4991945;28;20416;-45
2023/09/19 13:12:06;;;;;;;252.37;129.63;;;;;;;;;;4991855;28;20859;-44
2023/09/19 13:14:37;;;;;;;254.13;132.10;;;;;;;;;;4992066;28;20415;-44
2023/09/19 13:17:06;;;;;;;254.27;128.67;;;;;;;;;;4991993;28;20499;-44
2023/09/19 13:19:39;;;;;;;256.13;132.67;;;;;;;;;;4992082;28;20423;-44
2023/09/19 13:22:08;;;;;;;250.93;125.50;;;;;;;;;;4991549;28;20450;-44
2023/09/19 13:24:37;;;;;;;252.50;126.90;;;;;;;;;;4992000;28;20407;-44
2023/09/19 13:27:03;;;;;;;251.07;122.20;;;;;;;;;;4991955;28;20432;-44
2023/09/19 13:29:29;;;;;;;254.20;129.53;;;;;;;;;;4991883;28;20420;-43
2023/09/19 13:31:55;;;;;;;249.97;123.63;;;;;;;;;;4991574;28;20428;-44
2023/09/19 13:34:22;;;;;;;250.93;125.63;;;;;;;;;;4991997;28;20785;-43
2023/09/19 13:36:48;;;;;;;252.47;126.70;;;;;;;;;;4993137;28;20416;-44
2023/09/19 13:39:15;;;;;;;249.43;125.03;;;;;;;;;;4995252;28;20415;-44
2023/09/19 13:41:42;;;;;;;246.83;118.50;;;;;;;;;;4994906;28;20443;-45
2023/09/19 13:44:10;;;;;;;251.53;126.30;;;;;;;;;;4995155;28;20915;-46
2023/09/19 13:46:37;;;;;;;251.07;126.93;;;;;;;;;;4995286;28;20404;-45
2023/09/19 13:49:06;;;;;;;254.30;127.93;;;;;;;;;;4994914;28;20491;-46
2023/09/19 13:51:32;;;;;;;251.03;127.20;;;;;;;;;;4994730;28;20467;-44
2023/09/19 13:54:01;;;;;;;248.93;128.53;;;;;;;;;;4995152;28;20423;-44
2023/09/19 13:56:27;;;;;;;253.87;131.73;;;;;;;;;;4994947;28;20784;-44
2023/09/19 13:58:54;;;;;;;250.50;129.67;;;;;;;;;;4995052;28;20824;-46
2023/09/19 14:01:20;;;;;;;252.70;128.33;;;;;;;;;;4994331;28;20443;-46
2023/09/19 14:03:50;;;;;;;250.83;125.33;;;;;;;;;;4995197;28;20884;-45
2023/09/19 14:06:17;;;;;;;248.70;120.23;;;;;;;;;;4994975;28;20408;-44
2023/09/19 14:08:44;;;;;;;248.57;119.13;;;;;;;;;;4994863;28;20841;-44
2023/09/19 14:11:10;;;;;;;247.83;115.60;;;;;;;;;;4994344;28;20464;-44